createdAt,value
2023-03-19T00:00:02.884Z,8.4
2023-03-19T00:20:02.293Z,8.2
2023-03-19T00:40:02.354Z,8.1
2023-03-19T01:00:02.725Z,7.8
2023-03-19T01:20:02.373Z,7.6
2023-03-19T01:40:02.636Z,7.5
2023-03-19T02:00:02.958Z,7.4
2023-03-19T02:20:02.413Z,7.3
2023-03-19T02:40:02.675Z,7.1
2023-03-19T03:00:02.899Z,7.1
2023-03-19T03:20:02.153Z,7
2023-03-19T03:40:02.501Z,7.1
2023-03-19T04:00:02.842Z,7
2023-03-19T04:20:02.189Z,7
2023-03-19T04:40:02.549Z,7
2023-03-19T05:00:02.854Z,7
2023-03-19T05:20:02.089Z,7
2023-03-19T05:40:02.458Z,7
2023-03-19T06:00:02.736Z,7.1
2023-03-19T06:20:02.670Z,7.3
2023-03-19T06:40:02.072Z,7.6
2023-03-19T07:00:02.330Z,8.1
2023-03-19T07:20:02.894Z,8.7
2023-03-19T07:40:02.200Z,9.2
2023-03-19T08:00:02.730Z,9.1
2023-03-19T08:20:02.303Z,10.1
2023-03-19T08:40:02.614Z,11.8
2023-03-19T09:00:03.137Z,12.2
2023-03-19T09:20:02.821Z,11.6
2023-03-19T09:40:02.270Z,11.1
2023-03-19T10:00:02.680Z,10.9
2023-03-19T10:20:03.234Z,10.8
2023-03-19T10:40:02.644Z,10.9
2023-03-19T11:00:03.220Z,11.6
2023-03-19T11:20:02.730Z,11.8
2023-03-19T11:40:03.006Z,12
2023-03-19T12:00:02.394Z,12.4
2023-03-19T12:20:03.062Z,13
2023-03-19T12:40:02.404Z,13.7
2023-03-19T13:00:02.896Z,14.5
2023-03-19T13:20:02.301Z,14.9
2023-03-19T13:40:02.700Z,15.2
2023-03-19T14:00:02.940Z,15.4
2023-03-19T14:20:07.093Z,15.5
2023-03-19T14:40:02.349Z,15.6
2023-03-19T15:00:02.590Z,15.6
2023-03-19T15:20:02.192Z,15.5
2023-03-19T15:40:02.516Z,15.2
2023-03-19T16:00:02.385Z,15.1
2023-03-19T16:20:03.052Z,14.9
2023-03-19T16:40:02.415Z,14.6
2023-03-19T17:00:02.712Z,14.3
2023-03-19T17:20:02.148Z,14
2023-03-19T17:40:02.548Z,13.5
2023-03-19T18:00:02.269Z,13.1
2023-03-19T18:20:02.970Z,12.8
2023-03-19T18:40:02.363Z,12.4
2023-03-19T19:00:02.649Z,12.3
2023-03-19T19:20:03.090Z,12
2023-03-19T19:40:02.412Z,11.8
2023-03-19T20:00:02.858Z,11.8
2023-03-19T20:20:02.311Z,11.7
2023-03-19T20:40:02.911Z,11.7
2023-03-19T21:00:02.433Z,11.7
2023-03-19T21:20:02.979Z,11.7
2023-03-19T21:40:02.575Z,11.8
2023-03-19T22:00:02.923Z,11.6
2023-03-19T22:20:02.338Z,11.6
2023-03-19T22:40:02.762Z,11.5
2023-03-19T23:00:03.268Z,11.5
2023-03-19T23:20:02.727Z,11.4
2023-03-19T23:40:03.165Z,11.3
